createdAt,value
2022-09-02T00:01:50.364Z,17.27
2022-09-02T00:04:26.520Z,17.24
2022-09-02T00:06:55.310Z,17.19
2022-09-02T00:09:26.460Z,17.18
2022-09-02T00:11:56.563Z,17.08
2022-09-02T00:14:35.495Z,17.05
2022-09-02T00:17:04.932Z,16.94
2022-09-02T00:19:33.891Z,16.87
2022-09-02T00:22:05.011Z,16.82
2022-09-02T00:24:33.331Z,16.73
2022-09-02T00:27:03.651Z,16.66
2022-09-02T00:29:33.731Z,16.67
2022-09-02T00:32:02.623Z,16.60
2022-09-02T00:34:33.893Z,16.61
2022-09-02T00:37:05.251Z,16.59
2022-09-02T00:39:33.634Z,16.59
2022-09-02T00:42:05.099Z,16.59
2022-09-02T00:44:34.336Z,16.58
2022-09-02T00:47:03.498Z,16.58
2022-09-02T00:49:35.332Z,16.54
2022-09-02T00:52:20.782Z,16.51
2022-09-02T00:55:02.611Z,16.38
2022-09-02T00:57:37.668Z,16.37
2022-09-02T01:00:18.310Z,16.36
2022-09-02T01:03:00.441Z,16.36
2022-09-02T01:05:45.148Z,16.50
2022-09-02T01:08:23.757Z,16.40
2022-09-02T01:10:55.940Z,16.35
2022-09-02T01:13:28.781Z,16.35
2022-09-02T01:16:02.869Z,16.35
2022-09-02T01:18:31.601Z,16.31
2022-09-02T01:21:03.317Z,16.29
2022-09-02T01:23:34.954Z,16.31
2022-09-02T01:26:05.251Z,16.28
2022-09-02T01:28:35.092Z,16.27
2022-09-02T01:31:04.371Z,16.26
2022-09-02T01:33:34.062Z,16.21
2022-09-02T01:36:04.360Z,16.24
2022-09-02T01:38:32.850Z,16.22
2022-09-02T01:41:01.259Z,16.23
2022-09-02T01:43:30.221Z,16.23
2022-09-02T01:46:01.951Z,16.16
2022-09-02T01:48:32.676Z,16.12
2022-09-02T01:51:04.157Z,16.05
2022-09-02T01:53:33.066Z,16.03
2022-09-02T01:56:04.036Z,15.97
2022-09-02T01:58:34.699Z,15.92
2022-09-02T02:01:04.313Z,15.96
2022-09-02T02:03:33.562Z,15.94
2022-09-02T02:06:03.159Z,15.85
2022-09-02T02:08:33.905Z,15.84
2022-09-02T02:11:04.375Z,15.78
2022-09-02T02:13:33.711Z,15.78
2022-09-02T02:16:03.787Z,15.74
2022-09-02T02:18:33.968Z,15.70
2022-09-02T02:21:02.047Z,15.66
2022-09-02T02:23:31.795Z,15.62
2022-09-02T02:26:05.409Z,15.55
2022-09-02T02:28:34.530Z,15.52
2022-09-02T02:31:04.543Z,15.48
2022-09-02T02:33:43.881Z,15.45
2022-09-02T02:36:12.301Z,15.41
2022-09-02T02:38:43.651Z,15.38
2022-09-02T02:41:14.948Z,15.32
2022-09-02T02:43:46.050Z,15.26
2022-09-02T02:46:15.768Z,15.25
2022-09-02T02:48:45.301Z,15.25
2022-09-02T02:51:12.629Z,15.21
2022-09-02T02:53:43.541Z,15.14
2022-09-02T02:56:13.923Z,15.06
2022-09-02T02:58:42.519Z,15.03
2022-09-02T03:01:13.725Z,15.02
2022-09-02T03:03:44.531Z,14.94
2022-09-02T03:06:15.218Z,14.88
2022-09-02T03:08:45.181Z,14.85
2022-09-02T03:11:21.181Z,14.81
2022-09-02T03:13:54.250Z,14.75
2022-09-02T03:16:21.930Z,14.72
2022-09-02T03:18:53.423Z,14.68
2022-09-02T03:21:24.850Z,14.68
2022-09-02T03:23:54.061Z,14.63
2022-09-02T03:26:31.810Z,14.67
2022-09-02T03:29:02.047Z,14.68
2022-09-02T03:31:29.493Z,14.72
2022-09-02T03:33:59.101Z,14.60
2022-09-02T03:36:35.111Z,14.63
2022-09-02T03:39:10.028Z,14.65
2022-09-02T03:41:43.653Z,14.71
2022-09-02T03:44:14.421Z,14.75
2022-09-02T03:46:44.121Z,14.76
2022-09-02T03:49:13.374Z,14.80
2022-09-02T03:51:45.146Z,14.79
2022-09-02T03:54:13.819Z,14.78
2022-09-02T03:56:45.079Z,14.73
2022-09-02T03:59:15.982Z,14.75
2022-09-02T04:01:44.610Z,14.78
2022-09-02T04:04:14.052Z,14.77
2022-09-02T04:06:44.971Z,14.81
2022-09-02T04:09:13.750Z,14.85
2022-09-02T04:11:46.722Z,14.83
2022-09-02T04:14:14.030Z,14.86
2022-09-02T04:16:45.170Z,14.86
2022-09-02T04:19:13.973Z,14.87
2022-09-02T04:21:45.364Z,14.92
2022-09-02T04:24:13.860Z,14.96
2022-09-02T04:26:49.259Z,14.99
2022-09-02T04:29:18.903Z,14.97
2022-09-02T04:31:50.556Z,15.08
2022-09-02T04:34:19.787Z,15.07
2022-09-02T04:36:53.031Z,15.18
2022-09-02T04:39:23.356Z,15.25
2022-09-02T04:41:54.291Z,15.26
2022-09-02T04:44:24.391Z,15.22
2022-09-02T04:46:53.311Z,15.34
2022-09-02T04:49:22.493Z,15.38
2022-09-02T04:51:57.043Z,15.48
2022-09-02T04:54:29.069Z,15.55
2022-09-02T04:57:00.088Z,15.56
2022-09-02T04:59:30.468Z,15.57
2022-09-02T05:02:09.387Z,15.65
2022-09-02T05:04:37.970Z,15.55
2022-09-02T05:07:12.436Z,15.64
2022-09-02T05:09:45.247Z,15.69
2022-09-02T05:12:14.938Z,15.73
2022-09-02T05:15:02.143Z,15.66
2022-09-02T05:17:36.016Z,15.77
2022-09-02T05:20:11.255Z,15.79
2022-09-02T05:22:41.551Z,15.85
2022-09-02T05:25:13.954Z,15.83
2022-09-02T05:27:44.295Z,15.86
2022-09-02T05:30:13.021Z,15.92
2022-09-02T05:32:52.220Z,15.95
2022-09-02T05:35:19.412Z,16.04
2022-09-02T05:37:49.261Z,16.07
2022-09-02T05:40:16.473Z,16.28
2022-09-02T05:42:52.584Z,16.52
2022-09-02T05:45:20.473Z,16.55
2022-09-02T05:47:50.762Z,16.46
2022-09-02T05:50:22.293Z,16.54
2022-09-02T05:52:53.267Z,16.61
2022-09-02T05:55:26.891Z,16.65
2022-09-02T05:57:55.501Z,16.72
2022-09-02T06:00:26.352Z,16.73
2022-09-02T06:03:04.030Z,16.85
2022-09-02T06:05:39.065Z,16.92
2022-09-02T06:08:14.905Z,16.98
2022-09-02T06:10:45.489Z,17.00
2022-09-02T06:13:22.485Z,17.14
2022-09-02T06:15:53.041Z,17.18
2022-09-02T06:18:27.288Z,17.41
2022-09-02T06:20:59.108Z,17.60
2022-09-02T06:23:39.171Z,17.69
2022-09-02T06:26:12.535Z,17.73
2022-09-02T06:28:41.298Z,17.81
2022-09-02T06:31:19.182Z,17.72
2022-09-02T06:33:52.852Z,17.70
2022-09-02T06:36:28.285Z,17.80
2022-09-02T06:39:00.700Z,17.81
2022-09-02T06:41:33.741Z,17.89
2022-09-02T06:44:09.253Z,18.00
2022-09-02T06:46:45.011Z,18.13
2022-09-02T06:49:19.112Z,18.28
2022-09-02T06:51:53.815Z,18.26
2022-09-02T06:54:25.973Z,17.91
2022-09-02T06:57:05.285Z,17.71
2022-09-02T06:59:33.817Z,17.67
2022-09-02T07:02:04.172Z,17.56
2022-09-02T07:04:57.176Z,17.66
2022-09-02T07:07:27.151Z,17.71
2022-09-02T07:10:09.467Z,17.71
2022-09-02T07:12:44.481Z,17.70
2022-09-02T07:15:19.431Z,17.53
2022-09-02T07:17:51.161Z,17.36
2022-09-02T07:20:38.436Z,17.64
2022-09-02T07:23:18.863Z,17.84
2022-09-02T07:25:50.249Z,17.96
2022-09-02T07:28:22.098Z,18.47
2022-09-02T07:30:58.971Z,18.82
2022-09-02T07:33:30.715Z,18.84
2022-09-02T07:36:00.819Z,18.98
2022-09-02T07:38:31.190Z,19.32
2022-09-02T07:41:03.655Z,19.48
2022-09-02T07:43:35.417Z,19.73
2022-09-02T07:46:06.750Z,19.95
2022-09-02T07:48:35.536Z,19.96
2022-09-02T07:51:05.183Z,20.05
2022-09-02T07:53:36.252Z,20.36
2022-09-02T07:56:05.971Z,20.43
2022-09-02T07:58:34.772Z,20.50
2022-09-02T08:01:04.206Z,20.53
2022-09-02T08:03:33.936Z,20.63
2022-09-02T08:06:03.304Z,20.66
2022-09-02T08:08:34.393Z,20.80
2022-09-02T08:11:04.324Z,21.40
2022-09-02T08:13:34.955Z,21.53
2022-09-02T08:16:05.205Z,21.49
2022-09-02T08:18:44.081Z,21.83
2022-09-02T08:21:11.092Z,21.72
2022-09-02T08:23:39.753Z,21.52
2022-09-02T08:26:09.925Z,21.30
2022-09-02T08:28:39.608Z,21.29
2022-09-02T08:31:12.581Z,21.76
2022-09-02T08:33:42.885Z,22.06
2022-09-02T08:36:13.333Z,22.23
2022-09-02T08:38:43.085Z,21.86
2022-09-02T08:41:24.346Z,22.00
2022-09-02T08:44:00.180Z,22.42
2022-09-02T08:46:43.495Z,22.46
2022-09-02T08:49:28.663Z,22.23
2022-09-02T08:52:01.008Z,22.62
2022-09-02T08:54:44.177Z,22.85
2022-09-02T08:57:12.853Z,22.65
2022-09-02T08:59:43.258Z,22.57
2022-09-02T09:02:30.873Z,22.82
2022-09-02T09:05:25.965Z,23.10
2022-09-02T09:08:24.202Z,22.81
2022-09-02T09:11:05.242Z,23.31
2022-09-02T09:13:58.996Z,23.58
2022-09-02T09:16:54.080Z,23.86
2022-09-02T09:19:43.080Z,24.21
2022-09-02T09:22:15.951Z,24.08
2022-09-02T09:24:54.125Z,23.89
2022-09-02T09:27:26.430Z,23.56
2022-09-02T09:29:56.620Z,23.85
2022-09-02T09:32:34.887Z,23.90
2022-09-02T09:35:14.573Z,24.53
2022-09-02T09:37:46.808Z,24.33
2022-09-02T09:40:27.985Z,25.00
2022-09-02T09:43:14.685Z,25.38
2022-09-02T09:45:54.295Z,25.29
2022-09-02T09:48:51.151Z,24.53
2022-09-02T09:51:19.993Z,24.46
2022-09-02T09:53:54.371Z,24.68
2022-09-02T09:56:44.832Z,24.97
2022-09-02T09:59:58.363Z,24.95
2022-09-02T10:02:31.131Z,24.96
2022-09-02T10:05:39.001Z,25.53
2022-09-02T10:08:52.990Z,25.92
2022-09-02T10:11:52.860Z,25.79
2022-09-02T10:14:29.617Z,25.95
2022-09-02T10:17:07.530Z,26.32
2022-09-02T10:19:56.391Z,26.25
2022-09-02T10:23:05.000Z,26.18
2022-09-02T10:25:53.058Z,26.38
2022-09-02T10:28:58.854Z,27.24
2022-09-02T10:31:54.495Z,27.05
2022-09-02T10:34:57.870Z,27.76
2022-09-02T10:37:33.060Z,26.81
2022-09-02T10:40:21.812Z,26.55
2022-09-02T10:43:20.165Z,26.90
2022-09-02T10:45:57.257Z,27.15
2022-09-02T10:48:47.120Z,27.06
2022-09-02T10:51:44.372Z,26.85
2022-09-02T10:54:55.222Z,27.14
2022-09-02T10:57:45.622Z,27.11
2022-09-02T11:00:25.157Z,27.63
2022-09-02T11:03:36.116Z,27.65
2022-09-02T11:06:15.711Z,27.63
2022-09-02T11:08:56.789Z,27.29
2022-09-02T11:11:38.461Z,27.02
2022-09-02T11:14:48.551Z,27.24
2022-09-02T11:17:16.812Z,27.38
2022-09-02T11:20:23.001Z,28.17
2022-09-02T11:22:58.762Z,28.34
2022-09-02T11:25:50.712Z,27.45
2022-09-02T11:28:24.181Z,27.28
2022-09-02T11:31:04.625Z,26.68
2022-09-02T11:34:26.583Z,27.36
2022-09-02T11:36:56.835Z,28.00
2022-09-02T11:40:11.207Z,27.93
2022-09-02T11:43:13.099Z,27.13
2022-09-02T11:46:13.778Z,27.29
2022-09-02T11:49:24.262Z,27.53
2022-09-02T11:52:25.636Z,28.01
2022-09-02T11:55:38.735Z,26.83
2022-09-02T11:58:07.182Z,27.19
2022-09-02T12:01:07.976Z,27.53
2022-09-02T12:07:10.254Z,27.60
2022-09-02T12:10:06.506Z,27.89
2022-09-02T12:12:39.247Z,28.00
2022-09-02T12:15:07.071Z,27.36
2022-09-02T12:17:53.392Z,27.04
2022-09-02T12:20:46.960Z,26.63
2022-09-02T12:23:56.827Z,26.26
2022-09-02T12:26:39.533Z,26.49
2022-09-02T12:29:35.070Z,26.98
2022-09-02T12:32:03.791Z,27.25
2022-09-02T12:34:33.893Z,27.13
2022-09-02T12:37:03.832Z,27.57
2022-09-02T12:39:39.490Z,28.33
2022-09-02T12:42:26.449Z,28.77
2022-09-02T12:45:05.480Z,28.58
2022-09-02T12:47:53.072Z,28.55
2022-09-02T12:50:58.361Z,27.61
2022-09-02T12:53:44.330Z,27.08
2022-09-02T12:56:25.160Z,27.16
2022-09-02T12:59:02.485Z,26.69
2022-09-02T13:02:15.021Z,26.26
2022-09-02T13:05:09.085Z,26.21
2022-09-02T13:08:13.892Z,26.25
2022-09-02T13:11:19.220Z,25.82
2022-09-02T13:14:19.548Z,25.60
2022-09-02T13:17:36.234Z,25.88
2022-09-02T13:20:38.871Z,25.26
2022-09-02T13:23:46.120Z,25.29
2022-09-02T13:27:11.751Z,25.32
2022-09-02T13:30:11.541Z,25.27
2022-09-02T13:32:42.529Z,25.41
2022-09-02T13:35:26.230Z,25.78
2022-09-02T13:38:05.257Z,25.56
2022-09-02T13:40:35.783Z,25.69
2022-09-02T13:43:19.269Z,25.91
2022-09-02T13:45:50.346Z,25.84
2022-09-02T13:48:29.600Z,25.60
2022-09-02T13:51:03.813Z,25.30
2022-09-02T13:54:18.791Z,24.69
2022-09-02T13:56:40.209Z,24.60
2022-09-02T13:59:10.667Z,24.85
2022-09-02T14:01:40.488Z,24.87
2022-09-02T14:04:15.719Z,25.07
2022-09-02T14:06:49.054Z,25.37
2022-09-02T14:09:33.468Z,25.24
2022-09-02T14:12:04.817Z,25.16
2022-09-02T14:14:34.652Z,25.43
2022-09-02T14:17:35.942Z,25.49
2022-09-02T14:20:22.655Z,25.06
2022-09-02T14:22:59.698Z,24.98
2022-09-02T14:25:39.622Z,25.07
2022-09-02T14:28:19.449Z,25.61
2022-09-02T14:30:59.046Z,25.50
2022-09-02T14:33:45.032Z,25.43
2022-09-02T14:36:33.965Z,25.26
2022-09-02T14:39:17.113Z,25.46
2022-09-02T14:41:57.861Z,25.29
2022-09-02T14:44:36.057Z,25.56
2022-09-02T14:47:13.448Z,25.76
2022-09-02T14:49:56.270Z,25.84
2022-09-02T14:52:29.635Z,25.78
2022-09-02T14:54:58.610Z,25.18
2022-09-02T14:57:33.060Z,24.79
2022-09-02T15:00:07.918Z,24.64
2022-09-02T15:02:39.639Z,24.39
2022-09-02T15:05:11.176Z,24.37
2022-09-02T15:07:44.260Z,24.51
2022-09-02T15:10:11.313Z,24.54
2022-09-02T15:12:45.220Z,24.66
2022-09-02T15:15:13.577Z,24.55
2022-09-02T15:17:43.004Z,24.57
2022-09-02T15:20:11.433Z,24.46
2022-09-02T15:22:38.829Z,24.48
2022-09-02T15:25:17.308Z,24.67
2022-09-02T15:27:45.922Z,24.74
2022-09-02T15:30:14.816Z,24.70
2022-09-02T15:32:45.886Z,24.76
2022-09-02T15:35:14.334Z,24.70
2022-09-02T15:37:44.803Z,24.76
2022-09-02T15:40:13.372Z,24.55
2022-09-02T15:42:43.401Z,24.33
2022-09-02T15:45:12.084Z,23.97
2022-09-02T15:47:39.826Z,23.93
2022-09-02T15:50:10.252Z,23.80
2022-09-02T15:52:41.159Z,23.86
2022-09-02T15:55:09.535Z,23.96
2022-09-02T15:57:36.805Z,23.81
2022-09-02T16:00:06.125Z,24.00
2022-09-02T16:02:45.408Z,23.93
2022-09-02T16:05:13.862Z,23.95
2022-09-02T16:07:42.777Z,23.87
2022-09-02T16:10:11.513Z,23.90
2022-09-02T16:12:38.568Z,23.95
2022-09-02T16:15:06.439Z,24.09
2022-09-02T16:17:34.719Z,24.06
2022-09-02T16:20:02.952Z,24.00
2022-09-02T16:22:35.302Z,23.79
2022-09-02T16:25:03.642Z,23.70
2022-09-02T16:27:50.394Z,23.58
2022-09-02T16:30:20.290Z,23.56
2022-09-02T16:32:53.094Z,23.58
2022-09-02T16:35:21.065Z,23.43
2022-09-02T16:37:49.721Z,23.40
2022-09-02T16:40:24.648Z,23.30
2022-09-02T16:42:54.904Z,23.32
2022-09-02T16:45:23.394Z,23.30
2022-09-02T16:47:50.668Z,23.25
2022-09-02T16:50:18.502Z,23.26
2022-09-02T16:52:45.627Z,23.20
2022-09-02T16:55:20.417Z,23.11
2022-09-02T16:57:50.517Z,23.11
2022-09-02T17:00:17.618Z,23.07
2022-09-02T17:02:45.143Z,23.01
2022-09-02T17:05:19.726Z,22.80
2022-09-02T17:07:50.360Z,22.83
2022-09-02T17:10:17.624Z,22.83
2022-09-02T17:12:45.953Z,22.86
2022-09-02T17:15:13.323Z,22.73
2022-09-02T17:17:42.581Z,22.61
2022-09-02T17:20:13.318Z,22.66
2022-09-02T17:22:44.201Z,22.69
2022-09-02T17:25:13.139Z,22.70
2022-09-02T17:27:43.149Z,22.71
2022-09-02T17:30:14.891Z,22.76
2022-09-02T17:32:42.754Z,22.72
2022-09-02T17:35:12.438Z,22.69
2022-09-02T17:37:44.857Z,22.68
2022-09-02T17:40:33.473Z,22.68
2022-09-02T17:43:01.141Z,22.70
2022-09-02T17:45:40.897Z,22.71
2022-09-02T17:48:35.318Z,22.61
2022-09-02T17:50:59.754Z,22.55
2022-09-02T17:53:29.027Z,22.44
2022-09-02T17:56:26.711Z,22.47
2022-09-02T17:59:06.411Z,22.46
2022-09-02T18:01:38.170Z,22.43
2022-09-02T18:04:29.244Z,22.45
2022-09-02T18:07:13.924Z,22.40
2022-09-02T18:09:41.128Z,22.38
2022-09-02T18:12:09.805Z,22.26
2022-09-02T18:14:46.004Z,22.08
2022-09-02T18:17:47.157Z,22.00
2022-09-02T18:20:30.611Z,21.89
2022-09-02T18:23:19.523Z,21.76
2022-09-02T18:26:19.937Z,21.68
2022-09-02T18:29:15.088Z,21.66
2022-09-02T18:32:14.737Z,21.58
2022-09-02T18:35:04.493Z,21.54
2022-09-02T18:37:51.632Z,21.48
2022-09-02T18:40:59.226Z,21.43
2022-09-02T18:43:39.726Z,21.28
2022-09-02T18:46:12.387Z,21.31
2022-09-02T18:48:40.063Z,21.33
2022-09-02T18:51:41.127Z,21.40
2022-09-02T18:54:34.962Z,21.41
2022-09-02T18:57:08.615Z,21.37
2022-09-02T19:00:09.849Z,21.31
2022-09-02T19:03:05.861Z,21.30
2022-09-02T19:05:37.068Z,21.26
2022-09-02T19:08:26.654Z,21.26
2022-09-02T19:11:04.899Z,21.20
2022-09-02T19:14:16.785Z,21.17
2022-09-02T19:16:45.165Z,21.13
2022-09-02T19:19:14.174Z,21.06
2022-09-02T19:21:54.697Z,21.02
2022-09-02T19:24:32.790Z,20.98
2022-09-02T19:27:22.094Z,20.89
2022-09-02T19:30:03.236Z,20.84
2022-09-02T19:32:34.776Z,20.76
2022-09-02T19:35:06.540Z,20.72
2022-09-02T19:37:44.205Z,20.70
2022-09-02T19:40:15.086Z,20.60
2022-09-02T19:42:45.209Z,20.50
2022-09-02T19:45:16.373Z,20.39
2022-09-02T19:48:05.970Z,20.33
2022-09-02T19:50:43.804Z,20.23
2022-09-02T19:53:21.162Z,20.14
2022-09-02T19:55:48.950Z,20.05
2022-09-02T19:58:16.243Z,20.00
2022-09-02T20:00:44.836Z,19.95
2022-09-02T20:03:13.406Z,19.90
2022-09-02T20:05:41.142Z,19.78
2022-09-02T20:08:18.105Z,19.72
2022-09-02T20:10:56.040Z,19.67
2022-09-02T20:13:30.744Z,19.60
2022-09-02T20:16:00.240Z,19.52
2022-09-02T20:18:29.802Z,19.47
2022-09-02T20:20:59.955Z,19.42
2022-09-02T20:23:28.822Z,19.29
2022-09-02T20:26:36.039Z,19.27
2022-09-02T20:29:37.801Z,19.19
2022-09-02T20:32:46.151Z,19.10
2022-09-02T20:35:49.990Z,18.99
2022-09-02T20:38:44.661Z,18.89
2022-09-02T20:41:42.592Z,18.79
2022-09-02T20:44:42.770Z,18.70
2022-09-02T20:47:53.880Z,18.61
2022-09-02T20:50:48.477Z,18.55
2022-09-02T20:53:45.581Z,18.48
2022-09-02T20:56:58.185Z,18.40
2022-09-02T21:00:04.239Z,18.34
2022-09-02T21:02:46.445Z,18.25
2022-09-02T21:05:22.743Z,18.21
2022-09-02T21:08:05.876Z,18.16
2022-09-02T21:10:46.152Z,18.05
2022-09-02T21:13:38.826Z,17.98
2022-09-02T21:16:19.774Z,17.92
2022-09-02T21:19:45.037Z,17.91
2022-09-02T21:22:45.314Z,17.91
2022-09-02T21:25:52.842Z,17.83
2022-09-02T21:28:26.211Z,17.86
2022-09-02T21:31:05.734Z,17.84
2022-09-02T21:33:37.914Z,17.74
2022-09-02T21:36:05.761Z,17.79
2022-09-02T21:38:45.701Z,17.78
2022-09-02T21:41:45.643Z,17.73
2022-09-02T21:44:49.636Z,17.60
2022-09-02T21:47:49.415Z,17.47
2022-09-02T21:50:50.638Z,17.40
2022-09-02T21:53:56.120Z,17.39
2022-09-02T21:56:50.708Z,17.30
2022-09-02T21:59:44.454Z,17.25
2022-09-02T22:02:25.958Z,17.15
2022-09-02T22:05:12.247Z,17.13
2022-09-02T22:08:03.280Z,17.08
2022-09-02T22:10:45.701Z,17.04
2022-09-02T22:13:14.520Z,16.98
2022-09-02T22:15:59.599Z,16.97
2022-09-02T22:19:00.842Z,16.97
2022-09-02T22:21:50.606Z,16.90
2022-09-02T22:24:29.286Z,16.88
2022-09-02T22:27:06.564Z,16.77
2022-09-02T22:30:05.370Z,16.76
2022-09-02T22:32:40.362Z,16.72
2022-09-02T22:35:34.449Z,16.67
2022-09-02T22:38:28.921Z,16.62
2022-09-02T22:41:26.628Z,16.63
2022-09-02T22:44:15.636Z,16.56
2022-09-02T22:47:41.117Z,16.58
2022-09-02T22:50:32.523Z,16.53
2022-09-02T22:53:01.223Z,16.45
2022-09-02T22:55:51.566Z,16.48
2022-09-02T22:58:59.962Z,16.47
2022-09-02T23:02:10.230Z,16.42
2022-09-02T23:05:06.931Z,16.33
2022-09-02T23:07:35.262Z,16.19
2022-09-02T23:10:11.552Z,16.18
2022-09-02T23:12:46.672Z,16.14
2022-09-02T23:15:41.390Z,16.12
2022-09-02T23:18:30.254Z,16.06
2022-09-02T23:21:17.221Z,16.01
2022-09-02T23:24:20.114Z,16.04
2022-09-02T23:27:23.406Z,15.95
2022-09-02T23:29:55.465Z,15.89
2022-09-02T23:33:03.991Z,15.90
2022-09-02T23:35:51.316Z,15.90
2022-09-02T23:38:43.742Z,15.87
2022-09-02T23:41:14.059Z,15.79
2022-09-02T23:43:42.661Z,15.82
2022-09-02T23:46:32.675Z,15.81
2022-09-02T23:49:24.996Z,15.75
2022-09-02T23:52:21.563Z,15.72
2022-09-02T23:55:09.751Z,15.66
2022-09-02T23:57:51.603Z,15.67
